sensor_id;sensor_type;location;lat;lon;timestamp;temperature;humidity
38488;DHT22;57384;51.986;4.458;2024-03-06T00:02:06;8.30;78.90
38488;DHT22;57384;51.986;4.458;2024-03-06T00:04:33;8.40;78.90
38488;DHT22;57384;51.986;4.458;2024-03-06T00:07:01;8.40;78.90
38488;DHT22;57384;51.986;4.458;2024-03-06T00:09:33;8.40;78.90
38488;DHT22;57384;51.986;4.458;2024-03-06T00:12:02;8.30;78.90
38488;DHT22;57384;51.986;4.458;2024-03-06T00:14:31;8.40;78.90
38488;DHT22;57384;51.986;4.458;2024-03-06T00:16:59;8.40;78.90
38488;DHT22;57384;51.986;4.458;2024-03-06T00:19:26;8.30;78.90
38488;DHT22;57384;51.986;4.458;2024-03-06T00:21:57;8.30;78.80
38488;DHT22;57384;51.986;4.458;2024-03-06T00:24:24;8.40;78.90
38488;DHT22;57384;51.986;4.458;2024-03-06T00:26:51;8.40;78.90
38488;DHT22;57384;51.986;4.458;2024-03-06T00:29:18;8.40;78.90
38488;DHT22;57384;51.986;4.458;2024-03-06T00:31:47;8.30;78.90
38488;DHT22;57384;51.986;4.458;2024-03-06T00:34:14;8.30;78.80
38488;DHT22;57384;51.986;4.458;2024-03-06T00:36:43;8.40;78.90
38488;DHT22;57384;51.986;4.458;2024-03-06T00:39:14;8.40;78.90
38488;DHT22;57384;51.986;4.458;2024-03-06T00:41:42;8.40;78.90
38488;DHT22;57384;51.986;4.458;2024-03-06T00:44:17;8.30;78.90
38488;DHT22;57384;51.986;4.458;2024-03-06T00:46:44;8.40;78.90
38488;DHT22;57384;51.986;4.458;2024-03-06T00:49:12;8.40;78.90
38488;DHT22;57384;51.986;4.458;2024-03-06T00:51:41;8.40;78.90
38488;DHT22;57384;51.986;4.458;2024-03-06T00:54:09;8.30;78.80
38488;DHT22;57384;51.986;4.458;2024-03-06T00:56:39;8.40;78.90
38488;DHT22;57384;51.986;4.458;2024-03-06T00:59:07;8.40;78.90
38488;DHT22;57384;51.986;4.458;2024-03-06T01:01:34;8.40;78.90
38488;DHT22;57384;51.986;4.458;2024-03-06T01:04:02;8.40;78.90
38488;DHT22;57384;51.986;4.458;2024-03-06T01:06:28;8.40;78.90
38488;DHT22;57384;51.986;4.458;2024-03-06T01:08:58;8.40;78.90
38488;DHT22;57384;51.986;4.458;2024-03-06T01:11:25;8.40;78.90
38488;DHT22;57384;51.986;4.458;2024-03-06T01:13:58;8.40;78.90
38488;DHT22;57384;51.986;4.458;2024-03-06T01:16:25;8.40;78.90
38488;DHT22;57384;51.986;4.458;2024-03-06T01:18:56;8.40;78.90
38488;DHT22;57384;51.986;4.458;2024-03-06T01:21:22;8.40;78.90
38488;DHT22;57384;51.986;4.458;2024-03-06T01:24:05;8.40;78.90
38488;DHT22;57384;51.986;4.458;2024-03-06T01:26:37;8.40;78.90
38488;DHT22;57384;51.986;4.458;2024-03-06T01:29:14;8.40;78.90
38488;DHT22;57384;51.986;4.458;2024-03-06T01:31:43;8.40;78.90
38488;DHT22;57384;51.986;4.458;2024-03-06T01:34:14;8.40;78.90
38488;DHT22;57384;51.986;4.458;2024-03-06T01:36:42;8.40;78.90
38488;DHT22;57384;51.986;4.458;2024-03-06T01:39:10;8.40;78.90
38488;DHT22;57384;51.986;4.458;2024-03-06T01:41:37;8.40;78.90
38488;DHT22;57384;51.986;4.458;2024-03-06T01:44:11;8.40;78.90
38488;DHT22;57384;51.986;4.458;2024-03-06T01:46:38;8.40;78.90
38488;DHT22;57384;51.986;4.458;2024-03-06T01:49:08;8.40;79.00
38488;DHT22;57384;51.986;4.458;2024-03-06T01:51:35;8.40;79.00
38488;DHT22;57384;51.986;4.458;2024-03-06T01:54:02;8.40;79.00
38488;DHT22;57384;51.986;4.458;2024-03-06T01:56:34;8.40;79.00
38488;DHT22;57384;51.986;4.458;2024-03-06T01:59:03;8.40;79.00
38488;DHT22;57384;51.986;4.458;2024-03-06T02:01:31;8.40;79.00
38488;DHT22;57384;51.986;4.458;2024-03-06T02:04:05;8.40;79.10
38488;DHT22;57384;51.986;4.458;2024-03-06T02:06:35;8.40;79.00
38488;DHT22;57384;51.986;4.458;2024-03-06T02:09:06;8.40;79.10
38488;DHT22;57384;51.986;4.458;2024-03-06T02:11:41;8.40;79.10
38488;DHT22;57384;51.986;4.458;2024-03-06T02:14:08;8.40;79.10
38488;DHT22;57384;51.986;4.458;2024-03-06T02:16:39;8.40;79.10
38488;DHT22;57384;51.986;4.458;2024-03-06T02:19:08;8.40;79.10
38488;DHT22;57384;51.986;4.458;2024-03-06T02:21:35;8.40;79.10
38488;DHT22;57384;51.986;4.458;2024-03-06T02:24:03;8.40;79.10
38488;DHT22;57384;51.986;4.458;2024-03-06T02:26:45;8.30;79.00
38488;DHT22;57384;51.986;4.458;2024-03-06T02:29:23;8.30;79.00
38488;DHT22;57384;51.986;4.458;2024-03-06T02:31:58;8.30;79.00
38488;DHT22;57384;51.986;4.458;2024-03-06T02:34:31;8.40;79.10
38488;DHT22;57384;51.986;4.458;2024-03-06T02:37:04;8.40;79.10
38488;DHT22;57384;51.986;4.458;2024-03-06T02:39:33;8.30;79.10
38488;DHT22;57384;51.986;4.458;2024-03-06T02:42:02;8.30;79.10
38488;DHT22;57384;51.986;4.458;2024-03-06T02:44:30;8.30;79.10
38488;DHT22;57384;51.986;4.458;2024-03-06T02:47:07;8.30;79.10
38488;DHT22;57384;51.986;4.458;2024-03-06T02:49:40;8.30;79.10
38488;DHT22;57384;51.986;4.458;2024-03-06T02:52:07;8.30;79.20
38488;DHT22;57384;51.986;4.458;2024-03-06T02:54:37;8.30;79.20
38488;DHT22;57384;51.986;4.458;2024-03-06T02:57:05;8.20;79.10
38488;DHT22;57384;51.986;4.458;2024-03-06T02:59:35;8.20;79.10
38488;DHT22;57384;51.986;4.458;2024-03-06T03:02:02;8.20;79.10
38488;DHT22;57384;51.986;4.458;2024-03-06T03:04:29;8.20;79.20
38488;DHT22;57384;51.986;4.458;2024-03-06T03:06:58;8.30;79.30
38488;DHT22;57384;51.986;4.458;2024-03-06T03:09:28;8.20;79.20
38488;DHT22;57384;51.986;4.458;2024-03-06T03:11:57;8.20;79.30
38488;DHT22;57384;51.986;4.458;2024-03-06T03:14:24;8.20;79.30
38488;DHT22;57384;51.986;4.458;2024-03-06T03:16:53;8.20;79.30
38488;DHT22;57384;51.986;4.458;2024-03-06T03:19:26;8.10;79.30
38488;DHT22;57384;51.986;4.458;2024-03-06T03:21:52;8.10;79.80
38488;DHT22;57384;51.986;4.458;2024-03-06T03:24:25;8.10;79.30
38488;DHT22;57384;51.986;4.458;2024-03-06T03:26:59;8.10;79.30
38488;DHT22;57384;51.986;4.458;2024-03-06T03:29:31;8.10;79.30
38488;DHT22;57384;51.986;4.458;2024-03-06T03:32:03;8.10;79.30
38488;DHT22;57384;51.986;4.458;2024-03-06T03:34:30;8.10;79.30
38488;DHT22;57384;51.986;4.458;2024-03-06T03:37:12;8.10;79.30
38488;DHT22;57384;51.986;4.458;2024-03-06T03:39:48;8.10;79.30
38488;DHT22;57384;51.986;4.458;2024-03-06T03:42:22;8.00;79.30
38488;DHT22;57384;51.986;4.458;2024-03-06T03:44:58;8.10;79.30
38488;DHT22;57384;51.986;4.458;2024-03-06T03:50:15;8.00;79.30
38488;DHT22;57384;51.986;4.458;2024-03-06T03:52:48;8.00;79.30
38488;DHT22;57384;51.986;4.458;2024-03-06T03:55:14;8.00;79.30
38488;DHT22;57384;51.986;4.458;2024-03-06T03:57:41;8.00;79.30
38488;DHT22;57384;51.986;4.458;2024-03-06T04:00:11;8.00;79.30
38488;DHT22;57384;51.986;4.458;2024-03-06T04:02:37;8.00;79.30
38488;DHT22;57384;51.986;4.458;2024-03-06T04:05:04;8.00;79.40
38488;DHT22;57384;51.986;4.458;2024-03-06T04:07:31;8.00;79.40
38488;DHT22;57384;51.986;4.458;2024-03-06T04:09:59;8.00;79.50
38488;DHT22;57384;51.986;4.458;2024-03-06T04:12:25;7.90;79.40
38488;DHT22;57384;51.986;4.458;2024-03-06T04:14:52;7.90;79.40
38488;DHT22;57384;51.986;4.458;2024-03-06T04:17:22;7.90;79.40
38488;DHT22;57384;51.986;4.458;2024-03-06T04:19:48;7.90;79.40
38488;DHT22;57384;51.986;4.458;2024-03-06T04:22:26;7.80;79.40
38488;DHT22;57384;51.986;4.458;2024-03-06T04:25:00;7.90;79.50
38488;DHT22;57384;51.986;4.458;2024-03-06T04:27:28;7.80;79.40
38488;DHT22;57384;51.986;4.458;2024-03-06T04:30:13;7.80;79.40
38488;DHT22;57384;51.986;4.458;2024-03-06T04:32:40;7.80;79.50
38488;DHT22;57384;51.986;4.458;2024-03-06T04:35:08;7.80;79.50
38488;DHT22;57384;51.986;4.458;2024-03-06T04:37:54;7.80;79.50
38488;DHT22;57384;51.986;4.458;2024-03-06T04:40:24;7.80;79.50
38488;DHT22;57384;51.986;4.458;2024-03-06T04:42:53;7.70;79.50
38488;DHT22;57384;51.986;4.458;2024-03-06T04:45:23;7.70;79.50
38488;DHT22;57384;51.986;4.458;2024-03-06T04:47:52;7.70;79.50
38488;DHT22;57384;51.986;4.458;2024-03-06T04:50:23;7.60;79.50
38488;DHT22;57384;51.986;4.458;2024-03-06T04:52:55;7.70;79.60
38488;DHT22;57384;51.986;4.458;2024-03-06T04:55:23;7.60;79.50
38488;DHT22;57384;51.986;4.458;2024-03-06T04:57:56;7.60;79.60
38488;DHT22;57384;51.986;4.458;2024-03-06T05:00:26;7.60;79.60
38488;DHT22;57384;51.986;4.458;2024-03-06T05:02:56;7.50;79.50
38488;DHT22;57384;51.986;4.458;2024-03-06T05:05:30;7.50;79.50
38488;DHT22;57384;51.986;4.458;2024-03-06T05:07:57;7.50;79.70
38488;DHT22;57384;51.986;4.458;2024-03-06T05:10:26;7.50;79.60
38488;DHT22;57384;51.986;4.458;2024-03-06T05:12:54;7.40;79.60
38488;DHT22;57384;51.986;4.458;2024-03-06T05:15:20;7.40;79.60
38488;DHT22;57384;51.986;4.458;2024-03-06T05:17:48;7.40;79.60
38488;DHT22;57384;51.986;4.458;2024-03-06T05:20:17;7.40;79.60
38488;DHT22;57384;51.986;4.458;2024-03-06T05:22:46;7.30;79.60
38488;DHT22;57384;51.986;4.458;2024-03-06T05:25:13;7.30;79.60
38488;DHT22;57384;51.986;4.458;2024-03-06T05:27:39;7.30;79.60
38488;DHT22;57384;51.986;4.458;2024-03-06T05:30:09;7.30;79.70
38488;DHT22;57384;51.986;4.458;2024-03-06T05:32:37;7.20;79.60
38488;DHT22;57384;51.986;4.458;2024-03-06T05:35:06;7.20;79.70
38488;DHT22;57384;51.986;4.458;2024-03-06T05:37:33;7.20;79.70
38488;DHT22;57384;51.986;4.458;2024-03-06T05:40:03;7.20;79.70
38488;DHT22;57384;51.986;4.458;2024-03-06T05:42:35;7.10;79.70
38488;DHT22;57384;51.986;4.458;2024-03-06T05:45:03;7.10;79.70
38488;DHT22;57384;51.986;4.458;2024-03-06T05:47:32;7.10;79.70
38488;DHT22;57384;51.986;4.458;2024-03-06T05:50:02;7.00;79.60
38488;DHT22;57384;51.986;4.458;2024-03-06T05:52:34;7.00;79.60
38488;DHT22;57384;51.986;4.458;2024-03-06T05:55:02;7.00;79.70
38488;DHT22;57384;51.986;4.458;2024-03-06T05:57:29;6.90;79.60
38488;DHT22;57384;51.986;4.458;2024-03-06T06:00:01;6.90;79.60
38488;DHT22;57384;51.986;4.458;2024-03-06T06:02:30;6.90;79.70
38488;DHT22;57384;51.986;4.458;2024-03-06T06:04:57;6.80;79.60
38488;DHT22;57384;51.986;4.458;2024-03-06T06:07:24;6.80;79.70
38488;DHT22;57384;51.986;4.458;2024-03-06T06:09:52;6.80;79.70
38488;DHT22;57384;51.986;4.458;2024-03-06T06:12:20;6.80;79.70
38488;DHT22;57384;51.986;4.458;2024-03-06T06:14:49;6.70;79.70
38488;DHT22;57384;51.986;4.458;2024-03-06T06:17:21;6.70;79.70
38488;DHT22;57384;51.986;4.458;2024-03-06T06:19:49;6.60;79.60
38488;DHT22;57384;51.986;4.458;2024-03-06T06:22:16;6.60;79.70
38488;DHT22;57384;51.986;4.458;2024-03-06T06:24:44;6.60;79.60
38488;DHT22;57384;51.986;4.458;2024-03-06T06:27:11;6.60;79.70
38488;DHT22;57384;51.986;4.458;2024-03-06T06:29:37;6.60;79.70
38488;DHT22;57384;51.986;4.458;2024-03-06T06:32:06;6.50;79.60
38488;DHT22;57384;51.986;4.458;2024-03-06T06:34:34;6.50;79.60
38488;DHT22;57384;51.986;4.458;2024-03-06T06:37:24;6.50;79.60
38488;DHT22;57384;51.986;4.458;2024-03-06T06:39:50;6.40;79.60
38488;DHT22;57384;51.986;4.458;2024-03-06T06:42:26;6.50;79.60
38488;DHT22;57384;51.986;4.458;2024-03-06T06:44:53;6.40;79.60
38488;DHT22;57384;51.986;4.458;2024-03-06T06:47:19;6.30;79.50
38488;DHT22;57384;51.986;4.458;2024-03-06T06:49:46;6.40;79.60
38488;DHT22;57384;51.986;4.458;2024-03-06T06:52:13;6.30;79.60
38488;DHT22;57384;51.986;4.458;2024-03-06T06:54:39;6.30;79.60
38488;DHT22;57384;51.986;4.458;2024-03-06T06:57:06;6.30;79.60
38488;DHT22;57384;51.986;4.458;2024-03-06T06:59:34;6.30;79.60
38488;DHT22;57384;51.986;4.458;2024-03-06T07:02:01;6.20;79.50
38488;DHT22;57384;51.986;4.458;2024-03-06T07:04:29;6.30;79.60
38488;DHT22;57384;51.986;4.458;2024-03-06T07:06:58;6.20;79.50
38488;DHT22;57384;51.986;4.458;2024-03-06T07:09:34;6.20;79.50
38488;DHT22;57384;51.986;4.458;2024-03-06T07:12:02;6.20;79.50
38488;DHT22;57384;51.986;4.458;2024-03-06T07:14:28;6.20;79.40
38488;DHT22;57384;51.986;4.458;2024-03-06T07:16:57;6.20;79.40
38488;DHT22;57384;51.986;4.458;2024-03-06T07:19:25;6.20;79.40
38488;DHT22;57384;51.986;4.458;2024-03-06T07:21:54;6.20;79.40
38488;DHT22;57384;51.986;4.458;2024-03-06T07:24:21;6.30;79.40
38488;DHT22;57384;51.986;4.458;2024-03-06T07:26:49;6.20;79.40
38488;DHT22;57384;51.986;4.458;2024-03-06T07:29:16;6.30;79.40
38488;DHT22;57384;51.986;4.458;2024-03-06T07:31:44;6.30;79.30
38488;DHT22;57384;51.986;4.458;2024-03-06T07:34:10;6.30;79.30
38488;DHT22;57384;51.986;4.458;2024-03-06T07:36:38;6.30;79.30
38488;DHT22;57384;51.986;4.458;2024-03-06T07:39:05;6.30;79.30
38488;DHT22;57384;51.986;4.458;2024-03-06T07:41:32;6.40;79.30
38488;DHT22;57384;51.986;4.458;2024-03-06T07:44:00;6.30;79.30
38488;DHT22;57384;51.986;4.458;2024-03-06T07:46:26;6.30;79.30
38488;DHT22;57384;51.986;4.458;2024-03-06T07:48:55;6.40;79.30
38488;DHT22;57384;51.986;4.458;2024-03-06T07:51:22;6.40;79.30
38488;DHT22;57384;51.986;4.458;2024-03-06T07:53:50;6.40;79.20
38488;DHT22;57384;51.986;4.458;2024-03-06T07:56:16;6.40;79.20
38488;DHT22;57384;51.986;4.458;2024-03-06T07:58:44;6.50;79.20
38488;DHT22;57384;51.986;4.458;2024-03-06T08:01:11;6.50;79.20
38488;DHT22;57384;51.986;4.458;2024-03-06T08:03:39;6.60;79.20
38488;DHT22;57384;51.986;4.458;2024-03-06T08:06:07;6.60;79.20
38488;DHT22;57384;51.986;4.458;2024-03-06T08:08:33;6.60;79.70
38488;DHT22;57384;51.986;4.458;2024-03-06T08:11:03;6.70;79.10
38488;DHT22;57384;51.986;4.458;2024-03-06T08:13:29;6.70;79.10
38488;DHT22;57384;51.986;4.458;2024-03-06T08:15:56;6.70;79.10
38488;DHT22;57384;51.986;4.458;2024-03-06T08:18:24;6.80;79.10
38488;DHT22;57384;51.986;4.458;2024-03-06T08:20:50;6.80;79.00
38488;DHT22;57384;51.986;4.458;2024-03-06T08:23:17;6.80;78.90
38488;DHT22;57384;51.986;4.458;2024-03-06T08:25:43;6.90;78.90
38488;DHT22;57384;51.986;4.458;2024-03-06T08:28:11;6.90;78.80
38488;DHT22;57384;51.986;4.458;2024-03-06T08:30:38;7.00;78.80
38488;DHT22;57384;51.986;4.458;2024-03-06T08:33:07;7.00;78.70
38488;DHT22;57384;51.986;4.458;2024-03-06T08:35:33;7.10;78.80
38488;DHT22;57384;51.986;4.458;2024-03-06T08:38:01;7.10;78.70
38488;DHT22;57384;51.986;4.458;2024-03-06T08:40:34;7.20;78.70
38488;DHT22;57384;51.986;4.458;2024-03-06T08:43:07;7.30;78.60
38488;DHT22;57384;51.986;4.458;2024-03-06T08:45:39;7.40;78.50
38488;DHT22;57384;51.986;4.458;2024-03-06T08:48:08;7.50;78.40
38488;DHT22;57384;51.986;4.458;2024-03-06T08:50:48;7.60;78.20
38488;DHT22;57384;51.986;4.458;2024-03-06T08:53:19;7.80;78.10
38488;DHT22;57384;51.986;4.458;2024-03-06T08:56:04;7.90;77.90
38488;DHT22;57384;51.986;4.458;2024-03-06T08:58:32;8.10;77.70
38488;DHT22;57384;51.986;4.458;2024-03-06T09:01:04;8.30;77.70
38488;DHT22;57384;51.986;4.458;2024-03-06T09:03:37;8.50;77.50
38488;DHT22;57384;51.986;4.458;2024-03-06T09:06:12;8.70;77.50
38488;DHT22;57384;51.986;4.458;2024-03-06T09:08:41;8.80;77.40
38488;DHT22;57384;51.986;4.458;2024-03-06T09:11:08;9.00;77.30
38488;DHT22;57384;51.986;4.458;2024-03-06T09:13:41;9.20;77.30
38488;DHT22;57384;51.986;4.458;2024-03-06T09:16:07;9.40;77.20
38488;DHT22;57384;51.986;4.458;2024-03-06T09:18:42;9.60;77.20
38488;DHT22;57384;51.986;4.458;2024-03-06T09:21:10;9.70;77.10
38488;DHT22;57384;51.986;4.458;2024-03-06T09:23:37;9.90;77.10
38488;DHT22;57384;51.986;4.458;2024-03-06T09:26:04;10.00;77.10
38488;DHT22;57384;51.986;4.458;2024-03-06T09:28:32;10.20;77.10
38488;DHT22;57384;51.986;4.458;2024-03-06T09:31:06;10.40;77.10
38488;DHT22;57384;51.986;4.458;2024-03-06T09:33:33;10.50;77.10
38488;DHT22;57384;51.986;4.458;2024-03-06T09:36:00;10.70;77.10
38488;DHT22;57384;51.986;4.458;2024-03-06T09:38:27;10.90;77.20
38488;DHT22;57384;51.986;4.458;2024-03-06T09:40:56;11.00;77.10
38488;DHT22;57384;51.986;4.458;2024-03-06T09:43:22;11.20;77.10
38488;DHT22;57384;51.986;4.458;2024-03-06T09:45:55;11.30;77.10
38488;DHT22;57384;51.986;4.458;2024-03-06T09:48:22;11.50;77.20
38488;DHT22;57384;51.986;4.458;2024-03-06T09:50:49;11.70;77.30
38488;DHT22;57384;51.986;4.458;2024-03-06T09:53:23;11.90;77.20
38488;DHT22;57384;51.986;4.458;2024-03-06T09:55:50;12.00;77.20
38488;DHT22;57384;51.986;4.458;2024-03-06T09:58:16;12.20;77.30
38488;DHT22;57384;51.986;4.458;2024-03-06T10:00:44;12.40;77.30
38488;DHT22;57384;51.986;4.458;2024-03-06T10:03:15;12.50;77.30
38488;DHT22;57384;51.986;4.458;2024-03-06T10:08:30;12.80;77.40
38488;DHT22;57384;51.986;4.458;2024-03-06T10:10:58;13.00;77.40
38488;DHT22;57384;51.986;4.458;2024-03-06T10:13:31;13.20;77.50
38488;DHT22;57384;51.986;4.458;2024-03-06T10:16:03;13.30;77.40
38488;DHT22;57384;51.986;4.458;2024-03-06T10:18:32;13.50;77.40
38488;DHT22;57384;51.986;4.458;2024-03-06T10:20:59;13.70;77.50
38488;DHT22;57384;51.986;4.458;2024-03-06T10:23:26;13.80;77.40
38488;DHT22;57384;51.986;4.458;2024-03-06T10:25:53;13.90;77.40
38488;DHT22;57384;51.986;4.458;2024-03-06T10:28:19;14.10;77.50
38488;DHT22;57384;51.986;4.458;2024-03-06T10:30:46;14.20;77.50
38488;DHT22;57384;51.986;4.458;2024-03-06T10:33:14;14.30;77.50
38488;DHT22;57384;51.986;4.458;2024-03-06T10:35:41;14.50;77.50
38488;DHT22;57384;51.986;4.458;2024-03-06T10:38:11;14.60;77.60
38488;DHT22;57384;51.986;4.458;2024-03-06T10:40:43;14.70;77.60
38488;DHT22;57384;51.986;4.458;2024-03-06T10:43:11;14.80;77.50
38488;DHT22;57384;51.986;4.458;2024-03-06T10:48:09;15.10;77.60
38488;DHT22;57384;51.986;4.458;2024-03-06T10:50:36;15.20;77.50
38488;DHT22;57384;51.986;4.458;2024-03-06T10:53:04;15.30;77.50
38488;DHT22;57384;51.986;4.458;2024-03-06T10:55:33;15.50;78.00
38488;DHT22;57384;51.986;4.458;2024-03-06T10:58:01;15.60;77.60
38488;DHT22;57384;51.986;4.458;2024-03-06T11:00:40;15.70;77.50
38488;DHT22;57384;51.986;4.458;2024-03-06T11:03:10;15.90;77.50
38488;DHT22;57384;51.986;4.458;2024-03-06T11:05:44;16.00;77.50
38488;DHT22;57384;51.986;4.458;2024-03-06T11:08:12;16.10;77.50
38488;DHT22;57384;51.986;4.458;2024-03-06T11:10:40;16.30;77.50
38488;DHT22;57384;51.986;4.458;2024-03-06T11:15:52;16.60;77.50
38488;DHT22;57384;51.986;4.458;2024-03-06T11:20:59;16.80;77.40
38488;DHT22;57384;51.986;4.458;2024-03-06T11:23:27;16.90;77.30
38488;DHT22;57384;51.986;4.458;2024-03-06T11:26:00;17.10;77.40
38488;DHT22;57384;51.986;4.458;2024-03-06T11:28:27;17.20;77.30
38488;DHT22;57384;51.986;4.458;2024-03-06T11:33:22;17.50;77.20
38488;DHT22;57384;51.986;4.458;2024-03-06T11:38:37;17.80;77.10
38488;DHT22;57384;51.986;4.458;2024-03-06T11:41:04;18.00;77.00
38488;DHT22;57384;51.986;4.458;2024-03-06T11:43:31;18.20;77.00
38488;DHT22;57384;51.986;4.458;2024-03-06T11:46:10;18.30;76.90
38488;DHT22;57384;51.986;4.458;2024-03-06T11:48:36;18.50;76.90
38488;DHT22;57384;51.986;4.458;2024-03-06T11:51:03;18.60;76.80
38488;DHT22;57384;51.986;4.458;2024-03-06T11:53:34;18.70;76.80
38488;DHT22;57384;51.986;4.458;2024-03-06T11:56:05;18.90;76.80
38488;DHT22;57384;51.986;4.458;2024-03-06T11:58:32;19.10;76.80
38488;DHT22;57384;51.986;4.458;2024-03-06T12:00:58;19.30;76.80
38488;DHT22;57384;51.986;4.458;2024-03-06T12:03:25;19.40;76.80
38488;DHT22;57384;51.986;4.458;2024-03-06T12:05:52;19.60;76.70
38488;DHT22;57384;51.986;4.458;2024-03-06T12:08:18;19.70;76.60
38488;DHT22;57384;51.986;4.458;2024-03-06T12:10:52;19.80;76.50
38488;DHT22;57384;51.986;4.458;2024-03-06T12:13:27;20.00;76.50
38488;DHT22;57384;51.986;4.458;2024-03-06T12:15:53;20.20;76.50
38488;DHT22;57384;51.986;4.458;2024-03-06T12:18:21;20.40;76.50
38488;DHT22;57384;51.986;4.458;2024-03-06T12:20:49;20.50;76.40
38488;DHT22;57384;51.986;4.458;2024-03-06T12:23:22;20.70;76.40
38488;DHT22;57384;51.986;4.458;2024-03-06T12:25:49;20.80;76.30
38488;DHT22;57384;51.986;4.458;2024-03-06T12:28:16;21.00;76.30
38488;DHT22;57384;51.986;4.458;2024-03-06T12:30:51;21.20;76.20
38488;DHT22;57384;51.986;4.458;2024-03-06T12:33:18;21.40;76.20
38488;DHT22;57384;51.986;4.458;2024-03-06T12:35:45;21.50;76.10
38488;DHT22;57384;51.986;4.458;2024-03-06T12:38:13;21.70;76.10
38488;DHT22;57384;51.986;4.458;2024-03-06T12:40:42;21.80;76.00
38488;DHT22;57384;51.986;4.458;2024-03-06T12:43:13;22.00;76.10
38488;DHT22;57384;51.986;4.458;2024-03-06T12:45:39;22.10;76.10
38488;DHT22;57384;51.986;4.458;2024-03-06T12:48:06;22.20;76.10
38488;DHT22;57384;51.986;4.458;2024-03-06T12:50:35;22.20;76.10
38488;DHT22;57384;51.986;4.458;2024-03-06T12:53:02;22.20;76.00
38488;DHT22;57384;51.986;4.458;2024-03-06T12:55:31;22.20;75.80
38488;DHT22;57384;51.986;4.458;2024-03-06T12:57:57;22.10;75.60
38488;DHT22;57384;51.986;4.458;2024-03-06T13:00:24;22.10;75.40
38488;DHT22;57384;51.986;4.458;2024-03-06T13:02:50;22.10;75.30
38488;DHT22;57384;51.986;4.458;2024-03-06T13:05:18;22.00;75.00
38488;DHT22;57384;51.986;4.458;2024-03-06T13:07:45;21.90;74.60
38488;DHT22;57384;51.986;4.458;2024-03-06T13:10:13;21.90;74.20
38488;DHT22;57384;51.986;4.458;2024-03-06T13:12:39;21.80;73.70
38488;DHT22;57384;51.986;4.458;2024-03-06T13:15:07;21.80;73.50
38488;DHT22;57384;51.986;4.458;2024-03-06T13:17:35;21.70;73.30
38488;DHT22;57384;51.986;4.458;2024-03-06T13:20:02;21.60;73.10
38488;DHT22;57384;51.986;4.458;2024-03-06T13:22:29;21.50;72.90
38488;DHT22;57384;51.986;4.458;2024-03-06T13:24:57;21.40;72.70
38488;DHT22;57384;51.986;4.458;2024-03-06T13:27:27;21.30;72.60
38488;DHT22;57384;51.986;4.458;2024-03-06T13:29:54;21.20;72.50
38488;DHT22;57384;51.986;4.458;2024-03-06T13:32:28;21.10;72.50
38488;DHT22;57384;51.986;4.458;2024-03-06T13:34:57;21.00;72.40
38488;DHT22;57384;51.986;4.458;2024-03-06T13:37:25;20.90;72.30
38488;DHT22;57384;51.986;4.458;2024-03-06T13:39:51;20.90;72.20
38488;DHT22;57384;51.986;4.458;2024-03-06T13:42:18;20.90;72.30
38488;DHT22;57384;51.986;4.458;2024-03-06T13:44:51;20.80;72.40
38488;DHT22;57384;51.986;4.458;2024-03-06T13:47:21;20.80;72.60
38488;DHT22;57384;51.986;4.458;2024-03-06T13:49:47;20.70;72.80
38488;DHT22;57384;51.986;4.458;2024-03-06T13:52:14;20.70;72.90
38488;DHT22;57384;51.986;4.458;2024-03-06T13:54:41;20.70;73.00
38488;DHT22;57384;51.986;4.458;2024-03-06T13:57:09;20.60;73.10
38488;DHT22;57384;51.986;4.458;2024-03-06T13:59:35;20.50;73.20
38488;DHT22;57384;51.986;4.458;2024-03-06T14:02:04;20.50;73.90
38488;DHT22;57384;51.986;4.458;2024-03-06T14:04:36;20.40;73.30
38488;DHT22;57384;51.986;4.458;2024-03-06T14:07:03;20.40;73.30
38488;DHT22;57384;51.986;4.458;2024-03-06T14:09:30;20.30;73.20
38488;DHT22;57384;51.986;4.458;2024-03-06T14:12:03;20.30;73.30
38488;DHT22;57384;51.986;4.458;2024-03-06T14:14:30;20.20;73.30
38488;DHT22;57384;51.986;4.458;2024-03-06T14:16:57;20.10;73.40
38488;DHT22;57384;51.986;4.458;2024-03-06T14:19:24;20.00;73.50
38488;DHT22;57384;51.986;4.458;2024-03-06T14:22:02;19.90;73.40
38488;DHT22;57384;51.986;4.458;2024-03-06T14:24:33;19.80;73.60
38488;DHT22;57384;51.986;4.458;2024-03-06T14:27:00;19.70;73.20
38488;DHT22;57384;51.986;4.458;2024-03-06T14:29:32;19.70;73.20
38488;DHT22;57384;51.986;4.458;2024-03-06T14:32:00;19.60;73.10
38488;DHT22;57384;51.986;4.458;2024-03-06T14:34:29;19.50;73.30
38488;DHT22;57384;51.986;4.458;2024-03-06T14:36:59;19.40;73.30
38488;DHT22;57384;51.986;4.458;2024-03-06T14:39:32;19.30;73.20
38488;DHT22;57384;51.986;4.458;2024-03-06T14:41:58;19.20;73.10
38488;DHT22;57384;51.986;4.458;2024-03-06T14:44:25;19.10;73.00
38488;DHT22;57384;51.986;4.458;2024-03-06T14:46:54;19.00;73.00
38488;DHT22;57384;51.986;4.458;2024-03-06T14:49:20;18.90;72.80
38488;DHT22;57384;51.986;4.458;2024-03-06T14:51:47;18.80;72.80
38488;DHT22;57384;51.986;4.458;2024-03-06T14:54:14;18.70;72.70
38488;DHT22;57384;51.986;4.458;2024-03-06T14:56:41;18.60;72.50
38488;DHT22;57384;51.986;4.458;2024-03-06T14:59:14;18.50;72.40
38488;DHT22;57384;51.986;4.458;2024-03-06T15:01:41;18.40;72.20
38488;DHT22;57384;51.986;4.458;2024-03-06T15:04:26;18.30;72.10
38488;DHT22;57384;51.986;4.458;2024-03-06T15:06:53;18.20;72.10
38488;DHT22;57384;51.986;4.458;2024-03-06T15:09:26;18.10;72.00
38488;DHT22;57384;51.986;4.458;2024-03-06T15:11:54;18.00;71.90
38488;DHT22;57384;51.986;4.458;2024-03-06T15:14:21;18.00;71.90
38488;DHT22;57384;51.986;4.458;2024-03-06T15:16:57;17.80;71.80
38488;DHT22;57384;51.986;4.458;2024-03-06T15:19:29;17.70;71.80
38488;DHT22;57384;51.986;4.458;2024-03-06T15:22:06;17.60;71.70
38488;DHT22;57384;51.986;4.458;2024-03-06T15:24:47;17.60;71.70
38488;DHT22;57384;51.986;4.458;2024-03-06T15:27:22;17.50;72.30
38488;DHT22;57384;51.986;4.458;2024-03-06T15:29:56;17.40;71.60
38488;DHT22;57384;51.986;4.458;2024-03-06T15:32:31;17.30;71.70
38488;DHT22;57384;51.986;4.458;2024-03-06T15:35:04;17.20;71.70
38488;DHT22;57384;51.986;4.458;2024-03-06T15:37:32;17.10;71.80
38488;DHT22;57384;51.986;4.458;2024-03-06T15:39:59;17.00;71.70
38488;DHT22;57384;51.986;4.458;2024-03-06T15:42:40;17.00;71.70
38488;DHT22;57384;51.986;4.458;2024-03-06T15:45:13;16.90;71.60
38488;DHT22;57384;51.986;4.458;2024-03-06T15:47:45;16.80;71.50
38488;DHT22;57384;51.986;4.458;2024-03-06T15:50:14;16.70;71.50
38488;DHT22;57384;51.986;4.458;2024-03-06T15:52:41;16.60;71.50
38488;DHT22;57384;51.986;4.458;2024-03-06T15:55:13;16.60;71.50
38488;DHT22;57384;51.986;4.458;2024-03-06T15:57:40;16.50;71.40
38488;DHT22;57384;51.986;4.458;2024-03-06T16:00:13;16.40;71.40
38488;DHT22;57384;51.986;4.458;2024-03-06T16:02:40;16.40;71.40
38488;DHT22;57384;51.986;4.458;2024-03-06T16:05:07;16.20;71.30
38488;DHT22;57384;51.986;4.458;2024-03-06T16:07:37;16.20;71.30
38488;DHT22;57384;51.986;4.458;2024-03-06T16:10:06;16.10;71.30
38488;DHT22;57384;51.986;4.458;2024-03-06T16:12:33;16.00;71.30